sensor_id;sensor_type;location;lat;lon;timestamp;P1;durP1;ratioP1;P2;durP2;ratioP2
36501;SDS011;25393;46.108;3.390;2023-02-28T00:01:13;4.10;;;2.30;;
36501;SDS011;25393;46.108;3.390;2023-02-28T00:03:41;5.23;;;2.73;;
36501;SDS011;25393;46.108;3.390;2023-02-28T00:06:08;3.50;;;2.20;;
36501;SDS011;25393;46.108;3.390;2023-02-28T00:08:38;3.83;;;2.43;;
36501;SDS011;25393;46.108;3.390;2023-02-28T00:11:06;3.37;;;2.33;;
36501;SDS011;25393;46.108;3.390;2023-02-28T00:13:39;5.20;;;2.60;;
36501;SDS011;25393;46.108;3.390;2023-02-28T00:16:09;6.07;;;2.90;;
36501;SDS011;25393;46.108;3.390;2023-02-28T00:18:37;5.13;;;2.50;;
36501;SDS011;25393;46.108;3.390;2023-02-28T00:21:04;4.87;;;2.47;;
36501;SDS011;25393;46.108;3.390;2023-02-28T00:23:32;4.03;;;2.37;;
36501;SDS011;25393;46.108;3.390;2023-02-28T00:25:59;6.33;;;2.30;;
36501;SDS011;25393;46.108;3.390;2023-02-28T00:28:25;6.40;;;3.43;;
36501;SDS011;25393;46.108;3.390;2023-02-28T00:30:53;6.00;;;3.23;;
36501;SDS011;25393;46.108;3.390;2023-02-28T00:33:23;3.43;;;2.57;;
36501;SDS011;25393;46.108;3.390;2023-02-28T00:35:50;6.20;;;2.90;;
36501;SDS011;25393;46.108;3.390;2023-02-28T00:38:17;7.33;;;2.93;;
36501;SDS011;25393;46.108;3.390;2023-02-28T00:40:43;4.87;;;3.00;;
36501;SDS011;25393;46.108;3.390;2023-02-28T00:43:10;4.03;;;2.27;;
36501;SDS011;25393;46.108;3.390;2023-02-28T00:45:36;3.40;;;2.67;;
36501;SDS011;25393;46.108;3.390;2023-02-28T00:48:03;6.47;;;2.80;;
36501;SDS011;25393;46.108;3.390;2023-02-28T00:50:30;4.53;;;2.87;;
36501;SDS011;25393;46.108;3.390;2023-02-28T00:52:56;7.23;;;2.77;;
36501;SDS011;25393;46.108;3.390;2023-02-28T00:55:23;3.27;;;2.50;;
36501;SDS011;25393;46.108;3.390;2023-02-28T00:57:56;3.27;;;2.03;;
36501;SDS011;25393;46.108;3.390;2023-02-28T01:00:22;6.87;;;2.73;;
36501;SDS011;25393;46.108;3.390;2023-02-28T01:02:49;4.87;;;2.63;;
36501;SDS011;25393;46.108;3.390;2023-02-28T01:05:16;5.13;;;2.60;;
36501;SDS011;25393;46.108;3.390;2023-02-28T01:07:42;7.90;;;3.10;;
36501;SDS011;25393;46.108;3.390;2023-02-28T01:10:09;6.03;;;2.80;;
36501;SDS011;25393;46.108;3.390;2023-02-28T01:12:36;4.27;;;2.53;;
36501;SDS011;25393;46.108;3.390;2023-02-28T01:15:02;5.40;;;3.27;;
36501;SDS011;25393;46.108;3.390;2023-02-28T01:17:29;4.23;;;2.87;;
36501;SDS011;25393;46.108;3.390;2023-02-28T01:19:56;7.17;;;3.10;;
36501;SDS011;25393;46.108;3.390;2023-02-28T01:22:22;4.97;;;2.97;;
36501;SDS011;25393;46.108;3.390;2023-02-28T01:24:49;6.20;;;3.17;;
36501;SDS011;25393;46.108;3.390;2023-02-28T01:27:15;7.40;;;2.87;;
36501;SDS011;25393;46.108;3.390;2023-02-28T01:29:42;6.43;;;3.30;;
36501;SDS011;25393;46.108;3.390;2023-02-28T01:32:08;9.13;;;3.47;;
36501;SDS011;25393;46.108;3.390;2023-02-28T01:34:35;7.00;;;3.27;;
36501;SDS011;25393;46.108;3.390;2023-02-28T01:37:02;9.90;;;3.40;;
36501;SDS011;25393;46.108;3.390;2023-02-28T01:39:29;7.03;;;3.17;;
36501;SDS011;25393;46.108;3.390;2023-02-28T01:41:56;7.67;;;3.63;;
36501;SDS011;25393;46.108;3.390;2023-02-28T01:47:26;6.93;;;3.07;;
36501;SDS011;25393;46.108;3.390;2023-02-28T01:49:58;6.43;;;3.07;;
36501;SDS011;25393;46.108;3.390;2023-02-28T01:52:28;6.90;;;3.57;;
36501;SDS011;25393;46.108;3.390;2023-02-28T01:54:55;4.93;;;2.90;;
36501;SDS011;25393;46.108;3.390;2023-02-28T01:57:31;5.60;;;2.73;;
36501;SDS011;25393;46.108;3.390;2023-02-28T02:00:10;7.10;;;2.87;;
36501;SDS011;25393;46.108;3.390;2023-02-28T02:02:44;6.07;;;2.53;;
36501;SDS011;25393;46.108;3.390;2023-02-28T02:05:18;4.63;;;2.67;;
36501;SDS011;25393;46.108;3.390;2023-02-28T02:07:48;6.33;;;2.90;;
36501;SDS011;25393;46.108;3.390;2023-02-28T02:10:21;7.43;;;3.57;;
36501;SDS011;25393;46.108;3.390;2023-02-28T02:15:40;7.23;;;2.47;;
36501;SDS011;25393;46.108;3.390;2023-02-28T02:18:15;4.17;;;2.20;;
36501;SDS011;25393;46.108;3.390;2023-02-28T02:21:11;4.40;;;2.10;;
36501;SDS011;25393;46.108;3.390;2023-02-28T02:24:47;4.30;;;1.80;;
36501;SDS011;25393;46.108;3.390;2023-02-28T02:43:51;3.80;;;1.70;;
36501;SDS011;25393;46.108;3.390;2023-02-28T02:46:36;3.77;;;2.07;;
36501;SDS011;25393;46.108;3.390;2023-02-28T02:49:09;4.30;;;2.43;;
36501;SDS011;25393;46.108;3.390;2023-02-28T02:51:41;2.80;;;2.00;;
36501;SDS011;25393;46.108;3.390;2023-02-28T02:54:24;3.83;;;2.30;;
36501;SDS011;25393;46.108;3.390;2023-02-28T02:56:59;5.23;;;1.77;;
36501;SDS011;25393;46.108;3.390;2023-02-28T02:59:33;2.13;;;1.50;;
36501;SDS011;25393;46.108;3.390;2023-02-28T03:02:04;2.77;;;1.70;;
36501;SDS011;25393;46.108;3.390;2023-02-28T03:04:37;3.60;;;1.90;;
36501;SDS011;25393;46.108;3.390;2023-02-28T03:07:09;3.23;;;1.73;;
36501;SDS011;25393;46.108;3.390;2023-02-28T03:09:36;5.20;;;2.30;;
36501;SDS011;25393;46.108;3.390;2023-02-28T03:12:05;6.50;;;2.13;;
36501;SDS011;25393;46.108;3.390;2023-02-28T03:14:46;3.27;;;2.00;;
36501;SDS011;25393;46.108;3.390;2023-02-28T03:25:37;3.27;;;1.77;;
36501;SDS011;25393;46.108;3.390;2023-02-28T03:28:19;2.73;;;1.67;;
36501;SDS011;25393;46.108;3.390;2023-02-28T03:31:15;6.17;;;2.00;;
36501;SDS011;25393;46.108;3.390;2023-02-28T03:36:25;7.63;;;1.57;;
36501;SDS011;25393;46.108;3.390;2023-02-28T03:39:08;4.93;;;2.10;;
36501;SDS011;25393;46.108;3.390;2023-02-28T03:41:43;3.30;;;1.83;;
36501;SDS011;25393;46.108;3.390;2023-02-28T03:44:18;3.57;;;1.77;;
36501;SDS011;25393;46.108;3.390;2023-02-28T03:47:00;3.73;;;1.60;;
36501;SDS011;25393;46.108;3.390;2023-02-28T03:49:35;7.00;;;2.00;;
36501;SDS011;25393;46.108;3.390;2023-02-28T03:52:09;5.90;;;1.90;;
36501;SDS011;25393;46.108;3.390;2023-02-28T03:54:39;4.37;;;1.60;;
36501;SDS011;25393;46.108;3.390;2023-02-28T03:57:32;2.43;;;1.80;;
36501;SDS011;25393;46.108;3.390;2023-02-28T04:00:02;1.67;;;1.37;;
36501;SDS011;25393;46.108;3.390;2023-02-28T04:02:36;5.53;;;1.73;;
36501;SDS011;25393;46.108;3.390;2023-02-28T04:05:02;2.43;;;1.97;;
36501;SDS011;25393;46.108;3.390;2023-02-28T04:07:31;2.00;;;1.60;;
36501;SDS011;25393;46.108;3.390;2023-02-28T04:09:57;2.43;;;1.90;;
36501;SDS011;25393;46.108;3.390;2023-02-28T04:12:25;2.63;;;1.57;;
36501;SDS011;25393;46.108;3.390;2023-02-28T04:14:52;3.13;;;1.93;;
36501;SDS011;25393;46.108;3.390;2023-02-28T04:17:18;5.13;;;2.00;;
36501;SDS011;25393;46.108;3.390;2023-02-28T04:19:45;1.70;;;1.50;;
36501;SDS011;25393;46.108;3.390;2023-02-28T04:22:11;4.90;;;2.50;;
36501;SDS011;25393;46.108;3.390;2023-02-28T04:24:38;2.93;;;1.60;;
36501;SDS011;25393;46.108;3.390;2023-02-28T04:27:08;2.73;;;1.60;;
36501;SDS011;25393;46.108;3.390;2023-02-28T04:29:38;3.43;;;1.90;;
36501;SDS011;25393;46.108;3.390;2023-02-28T04:32:04;2.67;;;1.80;;
36501;SDS011;25393;46.108;3.390;2023-02-28T04:34:34;3.60;;;1.87;;
36501;SDS011;25393;46.108;3.390;2023-02-28T04:37:03;5.40;;;2.07;;
36501;SDS011;25393;46.108;3.390;2023-02-28T04:39:39;3.23;;;1.63;;
36501;SDS011;25393;46.108;3.390;2023-02-28T04:42:07;3.73;;;2.00;;
36501;SDS011;25393;46.108;3.390;2023-02-28T04:44:33;4.33;;;1.97;;
36501;SDS011;25393;46.108;3.390;2023-02-28T04:47:00;3.13;;;1.70;;
36501;SDS011;25393;46.108;3.390;2023-02-28T04:49:26;4.00;;;1.70;;
36501;SDS011;25393;46.108;3.390;2023-02-28T04:51:53;2.13;;;1.60;;
36501;SDS011;25393;46.108;3.390;2023-02-28T04:54:19;6.37;;;2.00;;
36501;SDS011;25393;46.108;3.390;2023-02-28T04:56:46;3.47;;;1.60;;
36501;SDS011;25393;46.108;3.390;2023-02-28T04:59:14;2.97;;;1.60;;
36501;SDS011;25393;46.108;3.390;2023-02-28T05:01:44;5.50;;;1.70;;
36501;SDS011;25393;46.108;3.390;2023-02-28T05:04:12;7.33;;;1.80;;
36501;SDS011;25393;46.108;3.390;2023-02-28T05:06:39;5.43;;;1.93;;
36501;SDS011;25393;46.108;3.390;2023-02-28T05:09:05;1.87;;;1.60;;
36501;SDS011;25393;46.108;3.390;2023-02-28T05:11:35;5.37;;;1.67;;
36501;SDS011;25393;46.108;3.390;2023-02-28T05:14:05;3.97;;;1.73;;
36501;SDS011;25393;46.108;3.390;2023-02-28T05:16:35;4.90;;;1.77;;
36501;SDS011;25393;46.108;3.390;2023-02-28T05:19:02;2.33;;;1.70;;
36501;SDS011;25393;46.108;3.390;2023-02-28T05:21:30;3.13;;;1.63;;
36501;SDS011;25393;46.108;3.390;2023-02-28T05:23:59;5.27;;;2.13;;
36501;SDS011;25393;46.108;3.390;2023-02-28T05:26:27;2.60;;;1.83;;
36501;SDS011;25393;46.108;3.390;2023-02-28T05:28:54;3.23;;;1.70;;
36501;SDS011;25393;46.108;3.390;2023-02-28T05:31:21;3.83;;;2.10;;
36501;SDS011;25393;46.108;3.390;2023-02-28T05:33:48;1.70;;;1.57;;
36501;SDS011;25393;46.108;3.390;2023-02-28T05:36:14;2.67;;;1.70;;
36501;SDS011;25393;46.108;3.390;2023-02-28T05:38:41;3.67;;;1.60;;
36501;SDS011;25393;46.108;3.390;2023-02-28T05:41:09;4.43;;;1.73;;
36501;SDS011;25393;46.108;3.390;2023-02-28T05:43:37;2.87;;;1.60;;
36501;SDS011;25393;46.108;3.390;2023-02-28T05:46:07;3.83;;;2.27;;
36501;SDS011;25393;46.108;3.390;2023-02-28T05:48:37;2.63;;;1.97;;
36501;SDS011;25393;46.108;3.390;2023-02-28T05:51:07;3.27;;;1.70;;
36501;SDS011;25393;46.108;3.390;2023-02-28T05:53:36;3.13;;;1.67;;
36501;SDS011;25393;46.108;3.390;2023-02-28T05:56:03;5.23;;;1.80;;
36501;SDS011;25393;46.108;3.390;2023-02-28T05:58:30;4.13;;;1.83;;
36501;SDS011;25393;46.108;3.390;2023-02-28T06:00:58;2.57;;;1.50;;
36501;SDS011;25393;46.108;3.390;2023-02-28T06:03:25;4.43;;;1.97;;
36501;SDS011;25393;46.108;3.390;2023-02-28T06:05:52;6.83;;;2.27;;
36501;SDS011;25393;46.108;3.390;2023-02-28T06:08:18;4.83;;;2.00;;
36501;SDS011;25393;46.108;3.390;2023-02-28T06:10:45;4.70;;;2.20;;
36501;SDS011;25393;46.108;3.390;2023-02-28T06:13:12;5.03;;;2.20;;
36501;SDS011;25393;46.108;3.390;2023-02-28T06:15:39;3.03;;;2.03;;
36501;SDS011;25393;46.108;3.390;2023-02-28T06:18:08;4.17;;;1.60;;
36501;SDS011;25393;46.108;3.390;2023-02-28T06:20:34;1.60;;;1.37;;
36501;SDS011;25393;46.108;3.390;2023-02-28T06:23:02;4.63;;;1.70;;
36501;SDS011;25393;46.108;3.390;2023-02-28T06:25:28;2.73;;;1.80;;
36501;SDS011;25393;46.108;3.390;2023-02-28T06:27:55;3.23;;;2.07;;
36501;SDS011;25393;46.108;3.390;2023-02-28T06:30:21;2.27;;;1.73;;
36501;SDS011;25393;46.108;3.390;2023-02-28T06:32:53;3.23;;;1.67;;
36501;SDS011;25393;46.108;3.390;2023-02-28T06:35:20;2.70;;;2.10;;
36501;SDS011;25393;46.108;3.390;2023-02-28T06:37:47;2.10;;;1.73;;
36501;SDS011;25393;46.108;3.390;2023-02-28T06:40:14;2.43;;;1.73;;
36501;SDS011;25393;46.108;3.390;2023-02-28T06:42:41;2.30;;;1.77;;
36501;SDS011;25393;46.108;3.390;2023-02-28T06:45:10;3.07;;;1.77;;
36501;SDS011;25393;46.108;3.390;2023-02-28T06:47:40;3.27;;;2.10;;
36501;SDS011;25393;46.108;3.390;2023-02-28T06:50:11;4.90;;;2.17;;
36501;SDS011;25393;46.108;3.390;2023-02-28T06:52:40;5.23;;;2.10;;
36501;SDS011;25393;46.108;3.390;2023-02-28T06:55:06;5.13;;;1.93;;
36501;SDS011;25393;46.108;3.390;2023-02-28T06:57:34;1.50;;;1.40;;
36501;SDS011;25393;46.108;3.390;2023-02-28T07:00:04;7.40;;;1.97;;
36501;SDS011;25393;46.108;3.390;2023-02-28T07:02:37;8.53;;;1.90;;
36501;SDS011;25393;46.108;3.390;2023-02-28T07:05:04;3.00;;;1.90;;
36501;SDS011;25393;46.108;3.390;2023-02-28T07:07:32;2.83;;;1.40;;
36501;SDS011;25393;46.108;3.390;2023-02-28T07:09:59;3.27;;;1.57;;
36501;SDS011;25393;46.108;3.390;2023-02-28T07:12:25;3.87;;;2.63;;
36501;SDS011;25393;46.108;3.390;2023-02-28T07:14:52;3.27;;;1.80;;
36501;SDS011;25393;46.108;3.390;2023-02-28T07:17:18;2.97;;;2.07;;
36501;SDS011;25393;46.108;3.390;2023-02-28T07:19:48;2.90;;;1.67;;
36501;SDS011;25393;46.108;3.390;2023-02-28T07:22:16;3.67;;;2.20;;
36501;SDS011;25393;46.108;3.390;2023-02-28T07:24:42;2.23;;;1.53;;
36501;SDS011;25393;46.108;3.390;2023-02-28T07:27:12;2.93;;;2.03;;
36501;SDS011;25393;46.108;3.390;2023-02-28T07:29:49;6.50;;;1.97;;
36501;SDS011;25393;46.108;3.390;2023-02-28T07:32:16;4.03;;;1.93;;
36501;SDS011;25393;46.108;3.390;2023-02-28T07:34:45;3.00;;;1.80;;
36501;SDS011;25393;46.108;3.390;2023-02-28T07:37:18;1.97;;;1.67;;
36501;SDS011;25393;46.108;3.390;2023-02-28T07:39:48;3.33;;;2.67;;
36501;SDS011;25393;46.108;3.390;2023-02-28T07:42:18;1.70;;;1.60;;
36501;SDS011;25393;46.108;3.390;2023-02-28T07:44:48;3.63;;;2.00;;
36501;SDS011;25393;46.108;3.390;2023-02-28T07:47:17;1.70;;;1.60;;
36501;SDS011;25393;46.108;3.390;2023-02-28T07:49:44;1.57;;;1.43;;
36501;SDS011;25393;46.108;3.390;2023-02-28T07:52:12;1.60;;;1.50;;
36501;SDS011;25393;46.108;3.390;2023-02-28T07:54:39;5.50;;;2.17;;
36501;SDS011;25393;46.108;3.390;2023-02-28T07:57:05;2.63;;;2.10;;
36501;SDS011;25393;46.108;3.390;2023-02-28T07:59:32;3.80;;;1.80;;
36501;SDS011;25393;46.108;3.390;2023-02-28T08:01:58;4.70;;;1.80;;
36501;SDS011;25393;46.108;3.390;2023-02-28T08:04:25;5.90;;;1.73;;
36501;SDS011;25393;46.108;3.390;2023-02-28T08:06:52;3.70;;;1.90;;
36501;SDS011;25393;46.108;3.390;2023-02-28T08:09:19;1.87;;;1.57;;
36501;SDS011;25393;46.108;3.390;2023-02-28T08:11:48;2.93;;;2.10;;
36501;SDS011;25393;46.108;3.390;2023-02-28T08:14:18;8.27;;;2.23;;
36501;SDS011;25393;46.108;3.390;2023-02-28T08:16:44;3.97;;;1.97;;
36501;SDS011;25393;46.108;3.390;2023-02-28T08:19:17;5.20;;;2.10;;
36501;SDS011;25393;46.108;3.390;2023-02-28T08:21:44;2.60;;;2.07;;
36501;SDS011;25393;46.108;3.390;2023-02-28T08:24:14;4.70;;;2.53;;
36501;SDS011;25393;46.108;3.390;2023-02-28T08:26:44;2.90;;;1.70;;
36501;SDS011;25393;46.108;3.390;2023-02-28T08:29:12;5.37;;;2.43;;
36501;SDS011;25393;46.108;3.390;2023-02-28T08:31:39;3.47;;;2.00;;
36501;SDS011;25393;46.108;3.390;2023-02-28T08:34:06;5.23;;;2.77;;
36501;SDS011;25393;46.108;3.390;2023-02-28T08:36:37;3.73;;;2.10;;
36501;SDS011;25393;46.108;3.390;2023-02-28T08:39:04;3.07;;;1.80;;
36501;SDS011;25393;46.108;3.390;2023-02-28T08:41:31;4.23;;;1.73;;
36501;SDS011;25393;46.108;3.390;2023-02-28T08:43:58;3.40;;;2.33;;
36501;SDS011;25393;46.108;3.390;2023-02-28T08:46:24;5.27;;;1.80;;
36501;SDS011;25393;46.108;3.390;2023-02-28T08:48:51;2.77;;;2.00;;
36501;SDS011;25393;46.108;3.390;2023-02-28T08:51:20;6.10;;;2.03;;
36501;SDS011;25393;46.108;3.390;2023-02-28T08:53:53;2.70;;;2.17;;
36501;SDS011;25393;46.108;3.390;2023-02-28T08:56:21;3.40;;;2.20;;
36501;SDS011;25393;46.108;3.390;2023-02-28T08:58:48;2.60;;;2.00;;
36501;SDS011;25393;46.108;3.390;2023-02-28T09:01:19;4.33;;;2.03;;
36501;SDS011;25393;46.108;3.390;2023-02-28T09:03:48;7.47;;;2.10;;
36501;SDS011;25393;46.108;3.390;2023-02-28T09:06:19;5.70;;;2.13;;
36501;SDS011;25393;46.108;3.390;2023-02-28T09:08:47;6.10;;;2.30;;
36501;SDS011;25393;46.108;3.390;2023-02-28T09:11:14;3.77;;;2.03;;
36501;SDS011;25393;46.108;3.390;2023-02-28T09:13:44;3.37;;;1.97;;
36501;SDS011;25393;46.108;3.390;2023-02-28T09:16:17;3.97;;;2.27;;
36501;SDS011;25393;46.108;3.390;2023-02-28T09:18:47;3.00;;;2.10;;
36501;SDS011;25393;46.108;3.390;2023-02-28T09:21:18;5.47;;;2.23;;
36501;SDS011;25393;46.108;3.390;2023-02-28T09:23:48;5.30;;;1.97;;
36501;SDS011;25393;46.108;3.390;2023-02-28T09:26:17;3.53;;;2.03;;
36501;SDS011;25393;46.108;3.390;2023-02-28T09:28:45;4.23;;;2.57;;
36501;SDS011;25393;46.108;3.390;2023-02-28T09:31:22;4.47;;;2.33;;
36501;SDS011;25393;46.108;3.390;2023-02-28T09:33:52;4.50;;;2.37;;
36501;SDS011;25393;46.108;3.390;2023-02-28T09:36:20;5.97;;;2.07;;
36501;SDS011;25393;46.108;3.390;2023-02-28T09:38:50;6.30;;;2.00;;
36501;SDS011;25393;46.108;3.390;2023-02-28T09:41:24;4.90;;;1.97;;
36501;SDS011;25393;46.108;3.390;2023-02-28T09:43:58;2.53;;;1.97;;
36501;SDS011;25393;46.108;3.390;2023-02-28T09:49:06;5.83;;;2.07;;
36501;SDS011;25393;46.108;3.390;2023-02-28T09:51:40;4.77;;;2.50;;
36501;SDS011;25393;46.108;3.390;2023-02-28T09:54:30;3.93;;;2.47;;
36501;SDS011;25393;46.108;3.390;2023-02-28T10:02:29;3.33;;;2.27;;
36501;SDS011;25393;46.108;3.390;2023-02-28T10:05:10;5.20;;;3.10;;
36501;SDS011;25393;46.108;3.390;2023-02-28T10:10:42;5.27;;;2.43;;
36501;SDS011;25393;46.108;3.390;2023-02-28T10:19:01;2.80;;;2.30;;
36501;SDS011;25393;46.108;3.390;2023-02-28T10:21:39;4.77;;;2.60;;
36501;SDS011;25393;46.108;3.390;2023-02-28T10:24:19;3.10;;;2.20;;
36501;SDS011;25393;46.108;3.390;2023-02-28T10:27:05;4.37;;;2.80;;
36501;SDS011;25393;46.108;3.390;2023-02-28T10:29:54;4.10;;;2.37;;
36501;SDS011;25393;46.108;3.390;2023-02-28T10:32:24;3.53;;;2.37;;
36501;SDS011;25393;46.108;3.390;2023-02-28T10:35:00;5.77;;;2.53;;
36501;SDS011;25393;46.108;3.390;2023-02-28T10:38:05;3.93;;;2.13;;
36501;SDS011;25393;46.108;3.390;2023-02-28T10:40:38;3.80;;;2.20;;
36501;SDS011;25393;46.108;3.390;2023-02-28T10:43:11;6.83;;;2.67;;
36501;SDS011;25393;46.108;3.390;2023-02-28T10:46:04;6.27;;;2.47;;
36501;SDS011;25393;46.108;3.390;2023-02-28T10:48:39;5.10;;;2.77;;
36501;SDS011;25393;46.108;3.390;2023-02-28T10:51:12;4.27;;;2.73;;
36501;SDS011;25393;46.108;3.390;2023-02-28T10:56:26;4.00;;;2.43;;
36501;SDS011;25393;46.108;3.390;2023-02-28T10:58:54;3.33;;;2.30;;
36501;SDS011;25393;46.108;3.390;2023-02-28T11:01:41;5.60;;;2.27;;
36501;SDS011;25393;46.108;3.390;2023-02-28T11:04:31;3.83;;;2.23;;
36501;SDS011;25393;46.108;3.390;2023-02-28T11:09:33;5.20;;;2.20;;
36501;SDS011;25393;46.108;3.390;2023-02-28T11:12:02;2.60;;;2.30;;
36501;SDS011;25393;46.108;3.390;2023-02-28T11:14:33;3.50;;;2.27;;
36501;SDS011;25393;46.108;3.390;2023-02-28T11:20:05;4.33;;;2.40;;
36501;SDS011;25393;46.108;3.390;2023-02-28T11:22:44;4.37;;;2.63;;
36501;SDS011;25393;46.108;3.390;2023-02-28T11:25:24;4.03;;;2.40;;
36501;SDS011;25393;46.108;3.390;2023-02-28T11:27:58;5.35;;;2.40;;
36501;SDS011;25393;46.108;3.390;2023-02-28T11:33:22;3.70;;;2.60;;
36501;SDS011;25393;46.108;3.390;2023-02-28T11:35:52;3.30;;;2.57;;
36501;SDS011;25393;46.108;3.390;2023-02-28T11:38:25;5.00;;;2.10;;
36501;SDS011;25393;46.108;3.390;2023-02-28T11:43:28;2.75;;;2.20;;
36501;SDS011;25393;46.108;3.390;2023-02-28T11:49:04;6.57;;;2.23;;
36501;SDS011;25393;46.108;3.390;2023-02-28T11:54:48;5.77;;;3.00;;
36501;SDS011;25393;46.108;3.390;2023-02-28T12:03:30;3.83;;;2.70;;
36501;SDS011;25393;46.108;3.390;2023-02-28T12:16:48;4.35;;;2.72;;
36501;SDS011;25393;46.108;3.390;2023-02-28T12:19:34;6.70;;;2.83;;
36501;SDS011;25393;46.108;3.390;2023-02-28T12:22:30;7.07;;;3.33;;
36501;SDS011;25393;46.108;3.390;2023-02-28T12:27:40;7.03;;;3.30;;
36501;SDS011;25393;46.108;3.390;2023-02-28T12:30:20;6.00;;;2.90;;
36501;SDS011;25393;46.108;3.390;2023-02-28T12:35:37;3.95;;;2.38;;
36501;SDS011;25393;46.108;3.390;2023-02-28T12:38:13;9.95;;;3.28;;
36501;SDS011;25393;46.108;3.390;2023-02-28T12:43:34;4.17;;;3.00;;
36501;SDS011;25393;46.108;3.390;2023-02-28T12:46:09;5.53;;;3.00;;
36501;SDS011;25393;46.108;3.390;2023-02-28T12:48:48;9.20;;;3.08;;
36501;SDS011;25393;46.108;3.390;2023-02-28T12:51:25;6.47;;;3.40;;
36501;SDS011;25393;46.108;3.390;2023-02-28T12:54:14;5.73;;;3.23;;
36501;SDS011;25393;46.108;3.390;2023-02-28T12:59:51;4.50;;;3.10;;
36501;SDS011;25393;46.108;3.390;2023-02-28T13:05:16;5.30;;;3.00;;
36501;SDS011;25393;46.108;3.390;2023-02-28T13:10:24;7.10;;;3.53;;
36501;SDS011;25393;46.108;3.390;2023-02-28T13:12:52;6.80;;;3.20;;
36501;SDS011;25393;46.108;3.390;2023-02-28T13:17:52;5.33;;;3.20;;
36501;SDS011;25393;46.108;3.390;2023-02-28T13:20:20;5.60;;;3.33;;
36501;SDS011;25393;46.108;3.390;2023-02-28T13:22:52;7.30;;;3.47;;
36501;SDS011;25393;46.108;3.390;2023-02-28T13:28:57;6.07;;;4.17;;
36501;SDS011;25393;46.108;3.390;2023-02-28T13:31:23;4.87;;;3.67;;
36501;SDS011;25393;46.108;3.390;2023-02-28T13:38:56;6.13;;;3.67;;
36501;SDS011;25393;46.108;3.390;2023-02-28T13:47:24;5.83;;;4.03;;
36501;SDS011;25393;46.108;3.390;2023-02-28T13:49:27;7.77;;;4.13;;
36501;SDS011;25393;46.108;3.390;2023-02-28T14:03:58;7.80;;;3.70;;
36501;SDS011;25393;46.108;3.390;2023-02-28T14:06:32;4.17;;;3.07;;
36501;SDS011;25393;46.108;3.390;2023-02-28T14:09:01;8.30;;;3.27;;
36501;SDS011;25393;46.108;3.390;2023-02-28T14:11:35;5.93;;;3.73;;
36501;SDS011;25393;46.108;3.390;2023-02-28T14:14:07;6.80;;;3.37;;
36501;SDS011;25393;46.108;3.390;2023-02-28T14:16:43;8.60;;;3.47;;
36501;SDS011;25393;46.108;3.390;2023-02-28T14:19:21;5.10;;;3.47;;
36501;SDS011;25393;46.108;3.390;2023-02-28T14:21:59;6.00;;;3.50;;
36501;SDS011;25393;46.108;3.390;2023-02-28T14:25:03;6.73;;;3.70;;
36501;SDS011;25393;46.108;3.390;2023-02-28T14:36:35;6.27;;;3.33;;
36501;SDS011;25393;46.108;3.390;2023-02-28T14:39:12;5.83;;;3.43;;
36501;SDS011;25393;46.108;3.390;2023-02-28T14:41:44;7.03;;;3.63;;
36501;SDS011;25393;46.108;3.390;2023-02-28T14:44:19;7.87;;;3.57;;
36501;SDS011;25393;46.108;3.390;2023-02-28T14:47:00;9.13;;;3.70;;
36501;SDS011;25393;46.108;3.390;2023-02-28T14:49:35;7.33;;;3.70;;
36501;SDS011;25393;46.108;3.390;2023-02-28T14:52:13;10.70;;;3.57;;
36501;SDS011;25393;46.108;3.390;2023-02-28T14:54:51;6.80;;;3.83;;
36501;SDS011;25393;46.108;3.390;2023-02-28T14:57:30;7.10;;;3.30;;
36501;SDS011;25393;46.108;3.390;2023-02-28T14:59:59;7.50;;;3.77;;
36501;SDS011;25393;46.108;3.390;2023-02-28T15:02:46;9.57;;;3.70;;
36501;SDS011;25393;46.108;3.390;2023-02-28T15:07:46;7.97;;;4.17;;
36501;SDS011;25393;46.108;3.390;2023-02-28T15:10:22;6.93;;;3.60;;
36501;SDS011;25393;46.108;3.390;2023-02-28T15:12:56;8.50;;;4.53;;
36501;SDS011;25393;46.108;3.390;2023-02-28T15:15:26;7.03;;;3.90;;
36501;SDS011;25393;46.108;3.390;2023-02-28T15:18:31;6.23;;;3.77;;
36501;SDS011;25393;46.108;3.390;2023-02-28T15:21:18;5.50;;;3.60;;
36501;SDS011;25393;46.108;3.390;2023-02-28T15:23:50;5.27;;;3.90;;
36501;SDS011;25393;46.108;3.390;2023-02-28T15:26:22;7.13;;;3.47;;
36501;SDS011;25393;46.108;3.390;2023-02-28T15:28:58;7.10;;;3.67;;
36501;SDS011;25393;46.108;3.390;2023-02-28T15:31:40;7.87;;;3.97;;
36501;SDS011;25393;46.108;3.390;2023-02-28T15:34:36;5.80;;;3.70;;
36501;SDS011;25393;46.108;3.390;2023-02-28T15:40:25;8.30;;;3.47;;
36501;SDS011;25393;46.108;3.390;2023-02-28T15:45:37;5.20;;;3.30;;
36501;SDS011;25393;46.108;3.390;2023-02-28T15:48:23;6.00;;;3.70;;
36501;SDS011;25393;46.108;3.390;2023-02-28T15:51:01;5.53;;;3.97;;
36501;SDS011;25393;46.108;3.390;2023-02-28T15:56:35;6.17;;;3.90;;
36501;SDS011;25393;46.108;3.390;2023-02-28T15:59:27;8.20;;;3.57;;
36501;SDS011;25393;46.108;3.390;2023-02-28T16:04:56;6.57;;;4.00;;
36501;SDS011;25393;46.108;3.390;2023-02-28T16:07:29;6.47;;;3.57;;
36501;SDS011;25393;46.108;3.390;2023-02-28T16:09:56;7.30;;;3.93;;
36501;SDS011;25393;46.108;3.390;2023-02-28T16:12:25;6.33;;;3.73;;
36501;SDS011;25393;46.108;3.390;2023-02-28T16:14:54;6.60;;;3.60;;
36501;SDS011;25393;46.108;3.390;2023-02-28T16:17:27;6.87;;;4.43;;
36501;SDS011;25393;46.108;3.390;2023-02-28T16:19:56;7.23;;;3.80;;
36501;SDS011;25393;46.108;3.390;2023-02-28T16:22:23;6.27;;;3.37;;
36501;SDS011;25393;46.108;3.390;2023-02-28T16:24:50;11.33;;;4.10;;
36501;SDS011;25393;46.108;3.390;2023-02-28T16:30:21;6.97;;;3.87;;
36501;SDS011;25393;46.108;3.390;2023-02-28T16:32:49;6.80;;;4.00;;
36501;SDS011;25393;46.108;3.390;2023-02-28T16:35:17;8.40;;;4.20;;
36501;SDS011;25393;46.108;3.390;2023-02-28T16:37:45;6.07;;;3.83;;
36501;SDS011;25393;46.108;3.390;2023-02-28T16:40:22;7.40;;;3.83;;
36501;SDS011;25393;46.108;3.390;2023-02-28T16:42:52;7.03;;;4.20;;
36501;SDS011;25393;46.108;3.390;2023-02-28T16:45:22;9.53;;;4.20;;
36501;SDS011;25393;46.108;3.390;2023-02-28T16:47:51;10.87;;;4.60;;
36501;SDS011;25393;46.108;3.390;2023-02-28T16:50:19;7.90;;;4.43;;
36501;SDS011;25393;46.108;3.390;2023-02-28T16:52:48;11.47;;;4.70;;
36501;SDS011;25393;46.108;3.390;2023-02-28T16:55:15;11.63;;;4.63;;
36501;SDS011;25393;46.108;3.390;2023-02-28T16:57:44;7.37;;;4.77;;
36501;SDS011;25393;46.108;3.390;2023-02-28T17:00:19;6.87;;;4.20;;
36501;SDS011;25393;46.108;3.390;2023-02-28T17:02:45;7.50;;;4.10;;
36501;SDS011;25393;46.108;3.390;2023-02-28T17:05:14;10.50;;;4.63;;
36501;SDS011;25393;46.108;3.390;2023-02-28T17:07:43;9.43;;;4.90;;
36501;SDS011;25393;46.108;3.390;2023-02-28T17:10:21;10.90;;;5.77;;
36501;SDS011;25393;46.108;3.390;2023-02-28T17:12:50;10.67;;;5.87;;
36501;SDS011;25393;46.108;3.390;2023-02-28T17:15:19;11.00;;;3.70;;
36501;SDS011;25393;46.108;3.390;2023-02-28T17:17:46;6.80;;;4.20;;
36501;SDS011;25393;46.108;3.390;2023-02-28T17:20:17;4.43;;;3.73;;
36501;SDS011;25393;46.108;3.390;2023-02-28T17:22:49;7.27;;;3.93;;
36501;SDS011;25393;46.108;3.390;2023-02-28T17:25:16;4.30;;;3.33;;
36501;SDS011;25393;46.108;3.390;2023-02-28T17:27:45;7.60;;;3.77;;
36501;SDS011;25393;46.108;3.390;2023-02-28T17:30:22;5.93;;;3.77;;
36501;SDS011;25393;46.108;3.390;2023-02-28T17:32:50;6.67;;;3.70;;
36501;SDS011;25393;46.108;3.390;2023-02-28T17:35:17;10.43;;;4.00;;
36501;SDS011;25393;46.108;3.390;2023-02-28T17:37:45;11.10;;;4.57;;
36501;SDS011;25393;46.108;3.390;2023-02-28T17:40:13;7.20;;;3.87;;
36501;SDS011;25393;46.108;3.390;2023-02-28T17:42:41;7.13;;;4.00;;
36501;SDS011;25393;46.108;3.390;2023-02-28T17:45:09;9.43;;;4.50;;
36501;SDS011;25393;46.108;3.390;2023-02-28T17:47:36;7.13;;;3.80;;
36501;SDS011;25393;46.108;3.390;2023-02-28T17:50:02;7.53;;;3.97;;
36501;SDS011;25393;46.108;3.390;2023-02-28T17:52:29;7.87;;;4.37;;